Terminal Aerodrome Forecast
Issued by NWS

Home | Current Version | Previous Version | Graphics & Text | Print | Product List | Glossary On
Versions: 1 2 3 4 5 6 7 8 9 10 11 12 13 14 15 16 17 18 19 20 21 22 23
118
FTUS43 KICT 231728 AAB
TAFHUT
TAF AMD
KHUT 231728Z 2317/2418 17026G34KT P6SM BKN025
      TEMPO 2318/2321 BKN015
     FM232100 17027G36KT P6SM SCT020 BKN035
     FM241000 17022G31KT P6SM SCT030 BKN040=

USA.gov is the U.S. government's official web portal to all federal, state and local government web resources and services.